Time;durP1;ratioP1;P1;durP2;ratioP2;P2;SDS_P1;SDS_P2;PMS_P1;PMS_P2;Temp;Humidity;BMP_temperature;BMP_pressure;BME280_temperature;BME280_humidity;BME280_pressure;Samples;Min_cycle;Max_cycle;Signal;HPM_P1;HPM_P2
2022/01/26 00:05:46;;;;;;;16.77;8.10;;;;;;;-5.71;61.36;95901.34;5083104;28;20232;-69
2022/01/26 00:06:33;;;;;;;12.07;7.40;;;;;;;-6.00;62.81;95924.03;5082627;28;20570;-72
2022/01/26 00:09:02;;;;;;;12.83;6.97;;;;;;;-5.77;62.33;95924.97;5081770;28;21046;-71
2022/01/26 00:11:31;;;;;;;16.37;6.87;;;;;;;-5.71;61.51;95926.09;5082915;28;20634;-69
2022/01/26 00:13:58;;;;;;;10.83;7.40;;;;;;;-5.52;61.26;95923.59;5081147;28;21310;-70
2022/01/26 00:16:27;;;;;;;14.57;7.67;;;;;;;-5.85;61.70;95917.22;5082862;28;20201;-69
2022/01/26 00:18:58;;;;;;;16.27;8.67;;;;;;;-6.33;62.17;95916.84;5081552;28;20359;-69
2022/01/26 00:21:28;;;;;;;23.20;7.83;;;;;;;-6.29;62.73;95912.88;5082366;28;20224;-70
2022/01/26 00:27:20;;;;;;;17.20;9.60;;;;;;;-6.33;62.89;95906.09;5059792;28;20232;-70
2022/01/26 00:29:59;;;;;;;13.63;7.33;;;;;;;-6.25;63.04;95904.81;5080523;28;20322;-71
2022/01/26 00:40:42;;;;;;;16.07;8.87;;;;;;;-6.35;63.29;95902.72;5080282;28;20286;-70
2022/01/26 00:43:15;;;;;;;12.30;8.67;;;;;;;-6.21;62.74;95902.56;5081177;28;20216;-70
2022/01/26 00:45:43;;;;;;;14.27;8.67;;;;;;;-6.29;62.73;95907.94;5079089;28;21021;-71
2022/01/26 00:48:10;;;;;;;17.10;9.37;;;;;;;-6.21;62.24;95914.06;5078552;28;20204;-71
2022/01/26 00:50:39;;;;;;;24.07;13.87;;;;;;;-6.62;63.54;95900.72;5079967;28;20208;-71
2022/01/26 00:53:07;;;;;;;28.10;13.60;;;;;;;-6.49;63.55;95909.53;5082277;28;20197;-71
2022/01/26 00:55:34;;;;;;;33.60;15.13;;;;;;;-6.49;63.13;95914.47;5081536;28;20200;-71
2022/01/26 00:58:01;;;;;;;32.93;12.60;;;;;;;-6.64;63.71;95911.31;5080339;28;20680;-70
2022/01/26 01:00:30;;;;;;;31.80;13.47;;;;;;;-6.71;63.39;95907.72;5082289;28;20233;-70
2022/01/26 01:02:58;;;;;;;30.07;14.23;;;;;;;-7.24;64.88;95902.78;5082146;28;20197;-71
2022/01/26 01:05:29;;;;;;;24.17;13.13;;;;;;;-7.29;64.84;95912.44;5081426;28;20691;-71
2022/01/26 01:08:03;;;;;;;26.23;13.23;;;;;;;-7.18;64.84;95900.59;5080604;28;20947;-70
2022/01/26 01:10:30;;;;;;;29.30;13.93;;;;;;;-6.88;63.11;95906.94;5080951;28;20312;-71
2022/01/26 01:12:58;;;;;;;25.40;11.97;;;;;;;-6.94;63.57;95903.38;5080803;28;20262;-70
2022/01/26 01:15:27;;;;;;;27.03;14.03;;;;;;;-6.97;63.69;95899.13;5079590;28;20204;-70
2022/01/26 01:18:05;;;;;;;26.63;14.17;;;;;;;-7.02;63.83;95885.72;5079045;28;20204;-70
2022/01/26 01:20:51;;;;;;;28.03;13.97;;;;;;;-6.82;63.63;95900.59;5078091;28;20243;-70
2022/01/26 01:26:26;;;;;;;27.10;14.07;;;;;;;-6.76;62.92;95898.41;5078043;28;20208;-70
2022/01/26 01:29:10;;;;;;;24.23;13.03;;;;;;;-6.83;63.56;95893.94;5077903;28;20216;-70
2022/01/26 01:31:44;;;;;;;32.73;13.67;;;;;;;-6.70;63.17;95888.81;5080261;28;20260;-70
2022/01/26 01:34:18;;;;;;;27.10;13.40;;;;;;;-6.82;63.13;95888.22;5080547;28;20710;-70
2022/01/26 01:36:48;;;;;;;29.93;13.50;;;;;;;-6.73;64.06;95888.66;5079837;28;20209;-70
2022/01/26 01:39:15;;;;;;;28.50;14.97;;;;;;;-6.70;64.17;95888.81;5080858;28;20199;-69
2022/01/26 01:41:44;;;;;;;25.40;13.00;;;;;;;-6.55;63.65;95891.94;5081315;28;20250;-69
2022/01/26 01:44:13;;;;;;;31.67;15.17;;;;;;;-6.66;63.84;95885.66;5080523;28;20234;-71
2022/01/26 01:46:41;;;;;;;28.93;14.93;;;;;;;-6.79;64.36;95878.50;5081669;28;20701;-72
2022/01/26 01:49:10;;;;;;;30.53;14.90;;;;;;;-6.86;64.40;95883.16;5080655;28;20681;-71
2022/01/26 01:51:40;;;;;;;33.30;14.27;;;;;;;-6.98;65.30;95872.72;5081196;28;20205;-70
2022/01/26 01:54:12;;;;;;;32.37;15.67;;;;;;;-6.76;64.89;95868.75;5079772;28;20202;-71
2022/01/26 01:56:40;;;;;;;36.87;16.17;;;;;;;-6.48;64.04;95875.78;5081345;28;20770;-71
2022/01/26 01:59:07;;;;;;;40.30;17.17;;;;;;;-6.54;64.68;95868.91;5078627;28;20209;-70
2022/01/26 02:01:34;;;;;;;45.00;19.57;;;;;;;-6.44;64.11;95863.59;5077284;28;20229;-70
2022/01/26 02:04:01;;;;;;;39.00;18.20;;;;;;;-6.38;63.74;95868.78;5080131;28;21834;-70
2022/01/26 02:06:27;;;;;;;35.07;18.10;;;;;;;-6.61;65.20;95864.47;5079819;28;20249;-70
2022/01/26 02:08:56;;;;;;;36.20;15.83;;;;;;;-6.46;65.37;95869.25;5079156;28;20205;-71
2022/01/26 02:11:22;;;;;;;38.87;17.27;;;;;;;-6.57;65.32;95861.38;5080090;28;20262;-72
2022/01/26 02:13:57;;;;;;;43.23;18.67;;;;;;;-6.34;64.26;95852.47;5080640;28;20583;-71
2022/01/26 02:16:29;;;;;;;35.87;16.40;;;;;;;-6.59;63.99;95857.97;5081137;28;20204;-71
2022/01/26 02:19:27;;;;;;;37.90;17.33;;;;;;;-6.77;65.33;95849.75;5080842;28;20236;-71
2022/01/26 02:52:32;;;;;;;42.00;16.83;;;;;;;-6.12;66.02;95836.91;5065725;28;20205;-70
2022/01/26 02:58:06;;;;;;;41.87;17.90;;;;;;;-6.40;66.94;95844.78;5074506;28;20209;-71
2022/01/26 03:00:43;;;;;;;31.43;15.27;;;;;;;-6.23;66.66;95839.78;5080682;28;20690;-71
2022/01/26 03:03:15;;;;;;;34.93;16.53;;;;;;;-6.05;65.60;95843.81;5081946;28;20203;-70
2022/01/26 03:05:50;;;;;;;38.27;17.07;;;;;;;-5.85;65.07;95838.03;5082007;28;20251;-71
2022/01/26 03:08:18;;;;;;;32.57;15.70;;;;;;;-6.11;65.90;95829.56;5080728;28;20262;-70
2022/01/26 03:10:50;;;;;;;33.07;16.83;;;;;;;-5.93;66.56;95846.78;5081586;28;20238;-71
2022/01/26 03:13:21;;;;;;;37.53;17.20;;;;;;;-6.02;66.65;95841.47;5082125;28;20266;-70
2022/01/26 03:15:53;;;;;;;33.03;16.10;;;;;;;-5.88;66.48;95838.75;5080432;28;20804;-70
2022/01/26 03:21:09;;;;;;;36.30;16.87;;;;;;;-6.12;67.32;95835.28;5081112;28;20298;-71
2022/01/26 03:29:17;;;;;;;38.77;17.37;;;;;;;-5.67;65.68;95833.81;5080359;28;20204;-71
2022/01/26 03:34:27;;;;;;;36.53;18.27;;;;;;;-5.85;66.77;95835.53;5081810;28;20201;-72
2022/01/26 03:36:57;;;;;;;48.30;18.73;;;;;;;-6.37;68.05;95838.34;5081188;28;20197;-71
2022/01/26 03:39:25;;;;;;;32.53;15.70;;;;;;;-6.10;67.93;95831.25;5080458;28;20630;-71
2022/01/26 03:42:02;;;;;;;34.73;16.33;;;;;;;-6.03;67.63;95832.34;5080857;28;20274;-71
2022/01/26 03:44:29;;;;;;;30.37;16.33;;;;;;;-5.91;67.81;95827.91;5084371;28;20224;-71
2022/01/26 03:46:56;;;;;;;34.53;17.57;;;;;;;-5.76;67.61;95828.50;5084348;28;20266;-71
2022/01/26 03:49:23;;;;;;;30.57;16.60;;;;;;;-5.62;66.96;95826.56;5084200;28;20205;-72
2022/01/26 03:51:49;;;;;;;35.97;18.27;;;;;;;-5.55;67.10;95829.38;5083828;28;20321;-72
2022/01/26 03:54:18;;;;;;;43.90;18.83;;;;;;;-5.55;67.45;95819.47;5085230;28;20277;-71
2022/01/26 03:56:46;;;;;;;49.43;17.57;;;;;;;-5.72;68.73;95817.94;5084625;28;20647;-71
2022/01/26 03:59:14;;;;;;;29.70;14.97;;;;;;;-5.59;68.24;95822.59;5084389;28;20205;-71
2022/01/26 04:01:41;;;;;;;32.50;14.70;;;;;;;-5.61;68.69;95813.41;5084086;28;21016;-71
2022/01/26 04:04:08;;;;;;;41.63;16.17;;;;;;;-5.72;68.60;95800.63;5083682;28;20667;-71
2022/01/26 04:06:35;;;;;;;30.73;14.50;;;;;;;-5.57;68.77;95816.06;5084587;28;21278;-70
2022/01/26 04:09:05;;;;;;;30.20;12.57;;;;;;;-5.56;68.39;95817.75;5083592;28;21224;-71
2022/01/26 04:11:36;;;;;;;21.23;9.20;;;;;;;-5.42;68.26;95814.97;5084501;28;20586;-71
2022/01/26 04:14:06;;;;;;;15.37;9.00;;;;;;;-5.20;67.81;95808.47;5084162;28;20672;-71
2022/01/26 04:16:38;;;;;;;16.33;9.40;;;;;;;-5.14;67.51;95808.66;5084567;28;20212;-71
2022/01/26 04:19:05;;;;;;;15.43;9.67;;;;;;;-5.16;66.17;95799.47;5083275;28;20202;-71
2022/01/26 04:21:45;;;;;;;16.87;9.60;;;;;;;-5.37;67.00;95803.63;5084478;28;20221;-71
2022/01/26 04:24:16;;;;;;;16.23;9.27;;;;;;;-5.39;67.63;95810.13;5084263;28;21055;-71
2022/01/26 04:26:48;;;;;;;15.77;9.07;;;;;;;-5.23;67.49;95802.53;5084680;28;20197;-71
2022/01/26 04:29:16;;;;;;;13.80;7.80;;;;;;;-5.07;66.41;95799.84;5083722;28;20284;-71
2022/01/26 04:31:45;;;;;;;14.40;8.43;;;;;;;-5.14;66.41;95797.91;5084329;28;20258;-72
2022/01/26 04:34:12;;;;;;;13.23;7.70;;;;;;;-5.13;66.91;95799.59;5084815;28;20242;-71
2022/01/26 04:36:44;;;;;;;21.63;8.43;;;;;;;-4.99;66.48;95800.97;5084159;28;20216;-71
2022/01/26 04:39:15;;;;;;;15.30;8.73;;;;;;;-4.87;65.86;95793.13;5083994;28;20197;-71
2022/01/26 04:41:47;;;;;;;14.30;7.47;;;;;;;-4.63;64.99;95798.13;5085629;28;20232;-71
2022/01/26 04:44:20;;;;;;;12.87;7.80;;;;;;;-4.53;64.75;95805.97;5083586;28;20201;-72
2022/01/26 04:46:49;;;;;;;23.63;8.93;;;;;;;-4.76;65.76;95793.53;5083934;28;20212;-72
2022/01/26 04:49:16;;;;;;;14.23;8.13;;;;;;;-4.60;65.12;95789.16;5084379;28;20217;-72
2022/01/26 04:51:44;;;;;;;14.90;8.53;;;;;;;-4.74;65.35;95795.28;5084242;28;20201;-71
2022/01/26 04:54:10;;;;;;;14.83;8.50;;;;;;;-4.62;65.25;95787.41;5082320;28;20255;-72
2022/01/26 04:56:37;;;;;;;16.93;9.17;;;;;;;-4.60;64.50;95798.25;5083013;28;20206;-72
2022/01/26 04:59:04;;;;;;;13.30;7.60;;;;;;;-4.52;64.45;95786.97;5083302;28;20250;-72
2022/01/26 05:01:31;;;;;;;12.47;7.70;;;;;;;-4.45;64.62;95792.19;5083639;28;20294;-72
2022/01/26 05:03:59;;;;;;;14.43;8.30;;;;;;;-4.40;64.86;95794.81;5083095;28;20201;-72
2022/01/26 05:06:26;;;;;;;14.23;8.43;;;;;;;-4.52;64.42;95789.44;5083013;28;20960;-72
2022/01/26 05:08:53;;;;;;;14.53;7.53;;;;;;;-4.54;65.58;95798.47;5082571;28;21398;-71
2022/01/26 05:11:28;;;;;;;13.83;7.63;;;;;;;-4.56;65.71;95800.06;5083030;28;20769;-72
2022/01/26 05:13:56;;;;;;;9.50;6.90;;;;;;;-4.65;65.63;95792.28;5083019;28;20211;-72
2022/01/26 05:16:23;;;;;;;12.10;7.37;;;;;;;-4.48;64.53;95796.22;5082712;28;20206;-70
2022/01/26 05:18:49;;;;;;;11.57;8.80;;;;;;;-4.51;65.04;95791.13;5082754;27;20300;-70
2022/01/26 05:21:17;;;;;;;15.53;9.63;;;;;;;-4.36;64.78;95798.25;5082516;28;20294;-72
2022/01/26 05:23:44;;;;;;;17.70;9.13;;;;;;;-4.39;63.84;95794.03;5082913;28;20217;-72
2022/01/26 05:26:11;;;;;;;14.20;8.30;;;;;;;-4.43;64.71;95796.34;5081799;28;20710;-71
2022/01/26 05:28:38;;;;;;;12.40;8.10;;;;;;;-4.36;64.80;95799.09;5081775;28;20201;-71
2022/01/26 05:31:05;;;;;;;14.47;7.53;;;;;;;-4.30;63.56;95781.13;5082139;28;20236;-71
2022/01/26 05:33:31;;;;;;;15.67;8.10;;;;;;;-4.33;63.68;95794.25;5083496;28;20201;-72
2022/01/26 05:35:59;;;;;;;14.27;7.60;;;;;;;-4.31;64.50;95794.31;5082352;28;20278;-71
2022/01/26 05:38:27;;;;;;;21.20;9.30;;;;;;;-4.19;63.82;95789.75;5082744;28;20213;-71
2022/01/26 05:40:55;;;;;;;14.03;8.80;;;;;;;-4.21;63.85;95787.25;5082262;28;20217;-72
2022/01/26 05:43:22;;;;;;;17.60;7.60;;;;;;;-4.35;64.01;95780.94;5082143;28;20228;-71
2022/01/26 05:45:53;;;;;;;11.87;7.40;;;;;;;-4.24;63.79;95779.69;5083048;28;20212;-72
2022/01/26 05:48:20;;;;;;;8.70;7.70;;;;;;;-4.31;64.06;95782.75;5082240;28;20208;-71
2022/01/26 05:50:52;;;;;;;18.77;8.47;;;;;;;-4.25;64.45;95778.00;5082965;28;20239;-71
2022/01/26 05:53:21;;;;;;;14.50;7.63;;;;;;;-4.33;64.19;95758.66;5082180;28;20200;-71
2022/01/26 05:55:50;;;;;;;13.03;7.67;;;;;;;-4.20;64.72;95771.53;5082686;28;20238;-76
2022/01/26 05:58:17;;;;;;;14.47;7.70;;;;;;;-4.31;64.79;95771.97;5082660;28;20285;-70
2022/01/26 06:00:45;;;;;;;12.67;8.20;;;;;;;-4.29;65.54;95776.22;5082220;28;20695;-71
2022/01/26 06:03:12;;;;;;;14.60;8.33;;;;;;;-4.22;65.41;95783.06;5081959;28;20233;-71
2022/01/26 06:05:39;;;;;;;12.30;7.90;;;;;;;-4.22;66.08;95788.03;5081546;28;20212;-71
2022/01/26 06:08:06;;;;;;;20.40;8.03;;;;;;;-4.17;66.02;95781.56;5082052;28;20205;-71
2022/01/26 06:10:34;;;;;;;15.80;9.10;;;;;;;-4.07;66.20;95792.66;5081682;28;20197;-71
2022/01/26 06:13:02;;;;;;;14.93;8.40;;;;;;;-4.03;65.79;95788.66;5081867;28;20213;-71
2022/01/26 06:15:29;;;;;;;14.70;8.70;;;;;;;-4.02;66.11;95785.38;5082527;28;20208;-71
2022/01/26 06:17:56;;;;;;;12.50;8.47;;;;;;;-3.95;66.02;95777.31;5081490;28;20274;-71
2022/01/26 06:20:23;;;;;;;13.90;8.43;;;;;;;-3.92;66.30;95779.91;5080700;28;20708;-71
2022/01/26 06:22:50;;;;;;;14.17;7.43;;;;;;;-3.86;66.11;95777.63;5082170;28;20262;-71
2022/01/26 06:25:16;;;;;;;15.03;8.27;;;;;;;-3.93;66.29;95773.25;5080926;28;20205;-71
2022/01/26 06:27:45;;;;;;;11.97;8.67;;;;;;;-3.88;65.92;95759.34;5080941;28;20201;-71
2022/01/26 06:30:14;;;;;;;15.63;8.60;;;;;;;-3.95;67.26;95774.84;5081648;28;20244;-71
2022/01/26 06:32:41;;;;;;;15.07;8.97;;;;;;;-3.96;67.83;95775.66;5081570;28;20197;-72
2022/01/26 06:35:09;;;;;;;18.73;9.40;;;;;;;-3.89;67.04;95775.03;5080533;28;20480;-72
2022/01/26 06:37:36;;;;;;;19.40;9.37;;;;;;;-3.84;67.42;95776.88;5082343;28;22028;-72
2022/01/26 06:40:04;;;;;;;19.13;9.70;;;;;;;-3.86;68.00;95776.00;5081947;28;20223;-70
2022/01/26 06:42:38;;;;;;;14.73;8.80;;;;;;;-3.90;68.43;95765.91;5081694;28;21301;-71
2022/01/26 06:45:16;;;;;;;17.37;9.33;;;;;;;-3.88;68.58;95774.25;5082477;28;20216;-73
2022/01/26 06:47:56;;;;;;;19.43;8.87;;;;;;;-3.97;69.44;95764.88;5080649;28;21283;-71
2022/01/26 06:50:22;;;;;;;20.93;9.30;;;;;;;-3.73;68.40;95779.72;5081241;28;20207;-71
2022/01/26 06:52:50;;;;;;;21.83;9.27;;;;;;;-3.61;68.88;95780.09;5081193;28;20197;-72
2022/01/26 06:55:18;;;;;;;18.23;9.50;;;;;;;-3.72;69.20;95791.34;5082036;28;20238;-71
2022/01/26 06:57:45;;;;;;;16.93;9.57;;;;;;;-3.67;69.12;95789.00;5081259;28;20755;-72
2022/01/26 07:00:14;;;;;;;15.73;8.93;;;;;;;-3.64;70.10;95792.44;5080296;28;20672;-71
2022/01/26 07:02:41;;;;;;;17.30;8.57;;;;;;;-3.59;70.34;95785.13;5081661;28;21912;-70
2022/01/26 07:05:11;;;;;;;17.77;9.13;;;;;;;-3.48;69.60;95787.16;5081763;28;20189;-70
2022/01/26 07:07:37;;;;;;;20.87;9.60;;;;;;;-3.59;70.11;95778.53;5081224;28;20199;-70
2022/01/26 07:12:50;;;;;;;12.30;8.20;;;;;;;-3.49;71.14;95780.50;5081006;28;20246;-71
2022/01/26 07:21:22;;;;;;;13.40;9.40;;;;;;;-3.11;70.49;95783.31;5085074;28;20246;-70
2022/01/26 07:23:49;;;;;;;15.63;8.57;;;;;;;-2.99;70.65;95773.75;5085217;28;20640;-72
2022/01/26 07:26:16;;;;;;;14.63;8.50;;;;;;;-3.08;70.60;95775.94;5084659;28;20254;-71
2022/01/26 07:28:43;;;;;;;11.93;7.70;;;;;;;-2.80;70.43;95780.09;5085298;28;20616;-71
2022/01/26 07:31:11;;;;;;;14.47;8.83;;;;;;;-2.85;70.36;95761.69;5084245;28;20243;-71
2022/01/26 07:33:38;;;;;;;15.60;9.67;;;;;;;-2.92;69.67;95780.56;5085081;28;20201;-71
2022/01/26 07:36:07;;;;;;;16.43;9.33;;;;;;;-2.94;70.79;95781.31;5085058;28;20211;-73
2022/01/26 07:38:34;;;;;;;15.47;9.23;;;;;;;-2.90;70.64;95778.97;5085212;28;20648;-71
2022/01/26 07:41:01;;;;;;;14.37;8.80;;;;;;;-2.92;70.65;95775.59;5083547;28;20204;-71
2022/01/26 07:43:28;;;;;;;19.20;8.90;;;;;;;-2.93;70.92;95773.91;5084442;28;20233;-71
2022/01/26 07:45:55;;;;;;;17.07;8.77;;;;;;;-2.75;71.09;95784.41;5084099;28;20251;-71
2022/01/26 07:48:23;;;;;;;20.90;10.90;;;;;;;-2.81;70.95;95789.19;5084896;28;20254;-71
2022/01/26 07:50:51;;;;;;;18.73;9.00;;;;;;;-2.82;71.61;95782.53;5083923;28;20672;-71
2022/01/26 07:53:20;;;;;;;27.30;9.80;;;;;;;-2.87;71.72;95783.19;5084707;28;20212;-72
2022/01/26 07:55:48;;;;;;;20.60;10.07;;;;;;;-3.06;72.49;95779.31;5084347;28;20197;-72
2022/01/26 07:58:15;;;;;;;17.70;8.90;;;;;;;-2.97;72.99;95782.06;5084195;28;20205;-71
2022/01/26 08:00:44;;;;;;;19.90;10.07;;;;;;;-2.89;73.81;95764.88;5084161;28;20817;-72
2022/01/26 08:03:13;;;;;;;20.63;10.23;;;;;;;-2.87;74.01;95774.09;5083980;28;20278;-71
2022/01/26 08:05:41;;;;;;;10.40;7.50;;;;;;;-2.99;74.22;95763.78;5084398;28;20201;-72
2022/01/26 08:08:08;;;;;;;15.23;8.97;;;;;;;-2.91;74.56;95771.47;5084404;28;20270;-72
2022/01/26 08:10:36;;;;;;;15.67;8.70;;;;;;;-3.05;75.11;95763.63;5084336;28;20206;-72
2022/01/26 08:13:03;;;;;;;19.53;10.23;;;;;;;-3.06;76.05;95776.84;5085179;28;20247;-72
2022/01/26 08:15:30;;;;;;;20.13;10.13;;;;;;;-2.96;76.09;95775.44;5084351;28;20840;-72
2022/01/26 08:17:58;;;;;;;19.97;9.83;;;;;;;-2.94;76.16;95777.19;5084111;28;20205;-72
2022/01/26 08:20:25;;;;;;;21.33;11.10;;;;;;;-2.84;76.11;95778.31;5083895;28;20197;-72
2022/01/26 08:22:55;;;;;;;20.67;10.67;;;;;;;-2.80;75.82;95768.50;5084096;28;20228;-72
2022/01/26 08:25:22;;;;;;;19.30;10.20;;;;;;;-2.70;75.77;95772.06;5084528;28;21824;-71
2022/01/26 08:27:57;;;;;;;16.30;10.33;;;;;;;-2.75;76.40;95776.94;5084794;28;20201;-72
2022/01/26 08:30:24;;;;;;;15.33;9.67;;;;;;;-2.67;75.81;95781.25;5082451;28;20681;-72
2022/01/26 08:32:51;;;;;;;19.73;9.03;;;;;;;-2.64;75.96;95778.88;5083642;28;20676;-70
2022/01/26 08:35:18;;;;;;;15.00;9.10;;;;;;;-2.65;76.66;95785.50;5083679;28;20201;-72
2022/01/26 08:37:44;;;;;;;18.00;9.60;;;;;;;-2.50;75.86;95785.09;5083956;28;20205;-71
2022/01/26 08:40:12;;;;;;;17.47;9.30;;;;;;;-2.43;75.67;95781.94;5083803;27;20321;-71
2022/01/26 08:42:41;;;;;;;20.20;9.50;;;;;;;-2.48;75.39;95784.34;5083559;28;20232;-71
2022/01/26 08:45:11;;;;;;;18.83;10.27;;;;;;;-2.46;75.51;95791.81;5084391;28;20216;-72
2022/01/26 08:47:38;;;;;;;21.30;9.63;;;;;;;-2.35;75.50;95802.94;5083800;28;20526;-71
2022/01/26 08:50:09;;;;;;;16.20;9.17;;;;;;;-2.37;75.45;95797.06;5082557;28;20223;-72
2022/01/26 08:52:37;;;;;;;18.23;9.37;;;;;;;-2.38;75.26;95797.00;5084207;28;20215;-71
2022/01/26 08:55:04;;;;;;;21.30;10.60;;;;;;;-2.28;75.09;95787.38;5083728;28;20193;-72
2022/01/26 08:57:34;;;;;;;20.57;10.37;;;;;;;-2.21;75.21;95799.16;5084116;28;20206;-72
2022/01/26 09:00:01;;;;;;;16.20;9.20;;;;;;;-2.11;75.13;95796.13;5082172;28;20209;-71
2022/01/26 09:02:29;;;;;;;17.10;9.53;;;;;;;-2.08;75.34;95796.19;5082679;28;21182;-71
2022/01/26 09:04:56;;;;;;;19.13;9.33;;;;;;;-2.02;75.23;95807.97;5083293;28;20204;-70
2022/01/26 09:07:23;;;;;;;14.27;8.83;;;;;;;-2.03;74.69;95795.47;5083733;28;20208;-71
2022/01/26 09:09:49;;;;;;;15.40;8.80;;;;;;;-2.06;75.23;95802.06;5083632;28;20694;-71
2022/01/26 09:12:19;;;;;;;14.60;7.93;;;;;;;-2.01;75.60;95796.38;5083925;28;20206;-72
2022/01/26 09:14:47;;;;;;;18.70;8.80;;;;;;;-1.92;74.82;95806.56;5082679;28;20782;-71
2022/01/26 09:17:14;;;;;;;15.87;9.03;;;;;;;-1.95;75.76;95791.53;5082869;28;20205;-71
2022/01/26 09:19:44;;;;;;;13.47;8.13;;;;;;;-1.93;75.51;95800.72;5083506;28;20238;-71
2022/01/26 09:22:13;;;;;;;13.37;8.10;;;;;;;-1.83;75.68;95806.81;5082572;28;20205;-72
2022/01/26 09:24:42;;;;;;;12.13;8.40;;;;;;;-1.77;75.32;95806.97;5082732;28;20714;-70
2022/01/26 09:27:12;;;;;;;12.40;8.10;;;;;;;-1.75;75.15;95800.38;5083268;28;21703;-70
2022/01/26 09:29:41;;;;;;;15.50;8.90;;;;;;;-1.86;75.09;95781.81;5082705;28;20193;-72
2022/01/26 09:32:08;;;;;;;11.80;7.50;;;;;;;-1.83;75.67;95791.84;5082559;28;20294;-70
2022/01/26 09:34:37;;;;;;;20.17;8.83;;;;;;;-1.75;75.06;95796.22;5083272;28;20208;-71
2022/01/26 09:37:07;;;;;;;12.60;8.00;;;;;;;-1.63;75.55;95794.84;5083262;28;20197;-71
2022/01/26 09:39:37;;;;;;;13.50;8.87;;;;;;;-1.59;75.22;95787.47;5082056;28;20197;-71
2022/01/26 09:42:04;;;;;;;15.53;7.80;;;;;;;-1.60;75.45;95783.28;5080986;28;20679;-71
2022/01/26 09:44:31;;;;;;;11.87;8.47;;;;;;;-1.58;75.34;95774.22;5082421;28;20237;-71
2022/01/26 09:47:00;;;;;;;14.13;9.07;;;;;;;-1.56;75.12;95777.59;5082567;28;20648;-70
2022/01/26 09:49:32;;;;;;;15.10;8.23;;;;;;;-1.52;75.23;95766.88;5082319;28;20205;-70
2022/01/26 09:52:01;;;;;;;10.10;7.13;;;;;;;-1.66;75.94;95749.91;5081128;28;20209;-71
2022/01/26 09:54:31;;;;;;;10.67;7.27;;;;;;;-1.47;75.82;95767.81;5082401;28;20212;-71
2022/01/26 09:57:02;;;;;;;12.70;7.70;;;;;;;-1.28;75.48;95764.13;5082250;28;20295;-71
2022/01/26 09:59:30;;;;;;;13.37;7.27;;;;;;;-1.18;75.40;95775.13;5082025;28;20657;-72
2022/01/26 10:01:58;;;;;;;12.47;7.90;;;;;;;-1.21;75.40;95765.06;5081995;28;20196;-71
2022/01/26 10:04:28;;;;;;;16.10;8.57;;;;;;;-0.98;75.09;95763.94;5080646;28;20277;-72
2022/01/26 10:07:05;;;;;;;10.67;7.13;;;;;;;-1.03;75.23;95765.50;5081956;28;20627;-71
2022/01/26 10:09:52;;;;;;;9.87;7.53;;;;;;;-0.95;75.11;95760.66;5081851;28;20205;-71
2022/01/26 10:15:32;;;;;;;11.87;7.07;;;;;;;-1.00;75.24;95765.59;5081901;28;20215;-71
2022/01/26 10:18:09;;;;;;;11.07;7.77;;;;;;;-0.92;75.50;95764.06;5081180;28;20714;-70
2022/01/26 10:20:43;;;;;;;11.70;7.80;;;;;;;-0.90;74.92;95754.13;5080195;28;20208;-72
2022/01/26 10:23:16;;;;;;;11.67;8.13;;;;;;;-0.95;75.28;95759.00;5081496;28;20232;-71
2022/01/26 10:25:47;;;;;;;14.83;7.60;;;;;;;-0.89;75.67;95763.31;5080876;28;20195;-72
2022/01/26 10:28:16;;;;;;;10.40;7.33;;;;;;;-0.96;75.82;95754.84;5080623;28;20213;-72
2022/01/26 10:30:47;;;;;;;8.63;7.30;;;;;;;-1.09;76.55;95745.41;5080702;28;21503;-70
2022/01/26 10:33:16;;;;;;;13.27;7.90;;;;;;;-1.19;77.66;95736.88;5065026;28;20203;-72
2022/01/26 10:35:44;;;;;;;18.00;8.03;;;;;;;-1.29;78.39;95746.63;5080441;28;20571;-71
2022/01/26 10:38:11;;;;;;;11.13;8.53;;;;;;;-1.30;78.89;95750.78;5080597;28;20197;-70
2022/01/26 10:40:39;;;;;;;13.17;8.13;;;;;;;-1.18;78.97;95735.22;5081847;28;20253;-70
2022/01/26 10:43:11;;;;;;;10.13;7.70;;;;;;;-1.14;78.51;95732.00;5079332;28;20240;-70
2022/01/26 10:45:51;;;;;;;9.70;7.23;;;;;;;-1.13;78.75;95738.66;5081200;28;20281;-70
2022/01/26 10:48:26;;;;;;;11.47;7.77;;;;;;;-0.91;77.95;95740.81;5080758;28;20201;-71
2022/01/26 10:54:11;;;;;;;11.77;7.40;;;;;;;-0.98;78.55;95738.16;5079193;28;20269;-70
2022/01/26 10:56:39;;;;;;;13.90;8.03;;;;;;;-1.04;78.51;95744.72;5081024;28;20203;-71
2022/01/26 10:59:07;;;;;;;9.33;7.30;;;;;;;-1.00;79.14;95739.78;5077891;28;20669;-71
2022/01/26 11:01:37;;;;;;;13.73;8.50;;;;;;;-0.98;78.92;95731.50;5077113;28;20298;-70
2022/01/26 11:04:05;;;;;;;11.57;7.00;;;;;;;-1.00;79.45;95742.28;5078729;28;20233;-70
2022/01/26 11:06:32;;;;;;;9.73;8.10;;;;;;;-0.91;79.09;95725.00;5081368;28;20200;-71
2022/01/26 11:09:07;;;;;;;7.20;6.00;;;;;;;-0.69;78.76;95727.13;5080252;28;20208;-70
2022/01/26 11:11:34;;;;;;;12.60;8.03;;;;;;;-0.78;78.45;95722.81;5080505;28;21103;-71
2022/01/26 11:14:01;;;;;;;14.57;8.10;;;;;;;-0.71;78.12;95732.06;5081383;28;20201;-72
2022/01/26 11:16:30;;;;;;;13.83;7.87;;;;;;;-0.52;78.12;95729.97;5081416;28;20592;-70
2022/01/26 11:18:58;;;;;;;9.83;7.27;;;;;;;-0.49;77.44;95720.00;5080881;28;20201;-70
2022/01/26 11:21:27;;;;;;;12.63;7.00;;;;;;;-0.50;77.84;95719.19;5080353;28;20212;-70
2022/01/26 11:24:06;;;;;;;11.37;8.30;;;;;;;-0.47;77.91;95718.38;5080650;28;20236;-70
2022/01/26 11:26:36;;;;;;;15.03;6.63;;;;;;;-0.41;77.89;95713.53;5079977;28;20522;-71
2022/01/26 11:29:15;;;;;;;13.53;7.47;;;;;;;-0.39;77.75;95719.38;5078782;28;20205;-71
2022/01/26 11:31:43;;;;;;;8.57;6.90;;;;;;;-0.55;78.25;95722.41;5078213;28;20233;-70
2022/01/26 11:34:11;;;;;;;10.60;7.03;;;;;;;-0.52;78.16;95717.47;5078077;28;20201;-70
2022/01/26 11:36:40;;;;;;;10.33;8.07;;;;;;;-0.52;78.49;95708.34;5080733;28;20208;-72
2022/01/26 11:47:30;;;;;;;9.53;6.37;;;;;;;-0.21;77.65;95706.38;5104731;28;20740;-72
2022/01/26 11:50:06;;;;;;;9.00;7.30;;;;;;;-0.26;78.07;95698.84;5106301;28;20197;-71
2022/01/26 11:52:37;;;;;;;10.20;7.97;;;;;;;-0.16;77.99;95700.66;5105141;28;20201;-71
2022/01/26 11:55:09;;;;;;;20.20;7.07;;;;;;;-0.32;78.17;95698.72;5104616;28;20193;-71
2022/01/26 11:57:43;;;;;;;9.27;7.00;;;;;;;-0.38;78.29;95686.97;5105283;28;20192;-71
2022/01/26 12:00:15;;;;;;;10.57;6.43;;;;;;;-0.46;78.88;95687.63;5105917;28;20193;-71
2022/01/26 12:02:53;;;;;;;11.37;7.20;;;;;;;-0.39;79.10;95689.41;5106829;28;20557;-71
2022/01/26 12:05:23;;;;;;;9.10;7.43;;;;;;;-0.56;79.73;95685.78;5110219;28;20232;-71
2022/01/26 12:07:51;;;;;;;9.27;6.70;;;;;;;-0.51;80.33;95687.56;5111991;28;20203;-71
2022/01/26 12:10:27;;;;;;;9.97;7.93;;;;;;;-0.58;80.90;95694.88;5112655;28;20296;-70
2022/01/26 12:13:02;;;;;;;10.63;7.80;;;;;;;-0.64;81.31;95698.09;5112168;28;20199;-71
2022/01/26 12:15:33;;;;;;;12.37;8.13;;;;;;;-0.75;82.08;95707.91;5112178;28;20197;-71
2022/01/26 12:18:17;;;;;;;12.03;7.70;;;;;;;-0.70;82.62;95703.81;5111272;28;20278;-71
2022/01/26 12:32:16;;;;;;;15.20;8.40;;;;;;;-0.77;81.79;95689.56;5111853;28;20196;-70
2022/01/26 12:34:57;;;;;;;11.60;8.07;;;;;;;-0.75;82.83;95684.59;5111331;28;20207;-70
2022/01/26 12:37:37;;;;;;;10.30;7.93;;;;;;;-0.76;83.01;95691.25;5112207;28;20581;-70
2022/01/26 12:43:06;;;;;;;11.03;7.57;;;;;;;-0.79;82.68;95691.16;5112663;28;20666;-70
2022/01/26 12:45:34;;;;;;;12.30;7.87;;;;;;;-0.65;82.41;95688.94;5112938;28;20653;-71
2022/01/26 12:48:01;;;;;;;13.63;8.17;;;;;;;-0.65;81.99;95690.59;5112693;28;20197;-71
2022/01/26 12:50:29;;;;;;;17.83;8.90;;;;;;;-0.58;81.16;95683.25;5112783;27;20193;-72
2022/01/26 12:52:58;;;;;;;10.23;7.87;;;;;;;-0.63;81.93;95691.47;5112550;28;20197;-71
2022/01/26 12:55:28;;;;;;;15.23;8.00;;;;;;;-0.80;81.31;95664.53;5112038;28;20189;-72
2022/01/26 12:57:55;;;;;;;9.70;7.57;;;;;;;-0.66;81.65;95681.41;5112372;28;20246;-71
2022/01/26 13:00:24;;;;;;;14.40;8.77;;;;;;;-0.59;81.38;95678.22;5112639;28;20231;-70
2022/01/26 13:02:51;;;;;;;9.63;7.37;;;;;;;-0.61;81.31;95679.84;5112252;28;20189;-70
2022/01/26 13:05:24;;;;;;;10.17;7.73;;;;;;;-0.64;81.26;95683.13;5111989;28;20319;-70
2022/01/26 13:08:02;;;;;;;11.23;7.40;;;;;;;-0.65;81.51;95678.09;5111517;28;20257;-69
2022/01/26 13:10:30;;;;;;;11.67;8.07;;;;;;;-0.57;81.52;95671.63;5111910;27;20188;-71
2022/01/26 13:12:58;;;;;;;14.10;8.30;;;;;;;-0.66;81.86;95666.44;5111647;27;20199;-71
2022/01/26 13:15:40;;;;;;;12.47;7.23;;;;;;;-0.63;81.72;95664.00;5111509;28;20193;-70